sensor_id;sensor_type;location;lat;lon;timestamp;pressure;altitude;pressure_sealevel;temperature;humidity
4415;BME280;2220;42.670;23.398;2024-01-30T00:01:02;96826.03;;;-0.98;100.00
4415;BME280;2220;42.670;23.398;2024-01-30T00:03:28;96828.88;;;-0.91;100.00
4415;BME280;2220;42.670;23.398;2024-01-30T00:05:54;96829.03;;;-0.93;100.00
4415;BME280;2220;42.670;23.398;2024-01-30T00:08:20;96828.22;;;-0.93;100.00
4415;BME280;2220;42.670;23.398;2024-01-30T00:10:45;96829.16;;;-0.94;100.00
4415;BME280;2220;42.670;23.398;2024-01-30T00:13:10;96835.09;;;-0.94;100.00
4415;BME280;2220;42.670;23.398;2024-01-30T00:15:36;96834.53;;;-0.97;100.00
4415;BME280;2220;42.670;23.398;2024-01-30T00:18:02;96833.34;;;-0.93;100.00
4415;BME280;2220;42.670;23.398;2024-01-30T00:20:27;96833.88;;;-0.90;100.00
4415;BME280;2220;42.670;23.398;2024-01-30T00:22:52;96835.75;;;-0.92;100.00
4415;BME280;2220;42.670;23.398;2024-01-30T00:25:18;96841.81;;;-0.93;100.00
4415;BME280;2220;42.670;23.398;2024-01-30T00:27:43;96840.59;;;-0.98;100.00
4415;BME280;2220;42.670;23.398;2024-01-30T00:30:09;96844.91;;;-0.99;100.00
4415;BME280;2220;42.670;23.398;2024-01-30T00:32:35;96841.41;;;-0.98;100.00
4415;BME280;2220;42.670;23.398;2024-01-30T00:35:00;96847.44;;;-1.08;100.00
4415;BME280;2220;42.670;23.398;2024-01-30T00:37:26;96840.06;;;-1.02;100.00
4415;BME280;2220;42.670;23.398;2024-01-30T00:39:51;96839.78;;;-0.99;100.00
4415;BME280;2220;42.670;23.398;2024-01-30T00:42:17;96844.88;;;-1.18;100.00
4415;BME280;2220;42.670;23.398;2024-01-30T00:44:42;96838.28;;;-1.11;100.00
4415;BME280;2220;42.670;23.398;2024-01-30T00:47:07;96837.63;;;-1.03;100.00
4415;BME280;2220;42.670;23.398;2024-01-30T00:49:33;96830.22;;;-0.97;100.00
4415;BME280;2220;42.670;23.398;2024-01-30T00:51:58;96837.38;;;-0.91;100.00
4415;BME280;2220;42.670;23.398;2024-01-30T00:54:24;96832.53;;;-0.94;100.00
4415;BME280;2220;42.670;23.398;2024-01-30T00:56:49;96836.03;;;-0.85;100.00
4415;BME280;2220;42.670;23.398;2024-01-30T00:59:15;96833.47;;;-0.85;100.00
4415;BME280;2220;42.670;23.398;2024-01-30T01:01:40;96833.47;;;-0.85;100.00
4415;BME280;2220;42.670;23.398;2024-01-30T01:04:05;96829.84;;;-0.82;100.00
4415;BME280;2220;42.670;23.398;2024-01-30T01:06:32;96828.75;;;-0.90;100.00
4415;BME280;2220;42.670;23.398;2024-01-30T01:08:57;96827.69;;;-0.87;100.00
4415;BME280;2220;42.670;23.398;2024-01-30T01:11:23;96831.44;;;-0.81;100.00
4415;BME280;2220;42.670;23.398;2024-01-30T01:13:48;96831.59;;;-0.83;100.00
4415;BME280;2220;42.670;23.398;2024-01-30T01:16:14;96834.56;;;-0.78;100.00
4415;BME280;2220;42.670;23.398;2024-01-30T01:18:39;96836.84;;;-0.75;100.00
4415;BME280;2220;42.670;23.398;2024-01-30T01:21:05;96831.59;;;-0.83;100.00
4415;BME280;2220;42.670;23.398;2024-01-30T01:23:31;96846.78;;;-0.91;100.00
4415;BME280;2220;42.670;23.398;2024-01-30T01:25:56;96834.94;;;-0.92;100.00
4415;BME280;2220;42.670;23.398;2024-01-30T01:28:21;96837.78;;;-0.95;100.00
4415;BME280;2220;42.670;23.398;2024-01-30T01:34:30;96836.47;;;-0.80;100.00
4415;BME280;2220;42.670;23.398;2024-01-30T01:36:55;96842.50;;;-0.81;100.00
4415;BME280;2220;42.670;23.398;2024-01-30T01:39:22;96831.31;;;-0.90;100.00
4415;BME280;2220;42.670;23.398;2024-01-30T01:41:48;96844.50;;;-0.94;100.00
4415;BME280;2220;42.670;23.398;2024-01-30T01:44:14;96843.94;;;-0.98;100.00
4415;BME280;2220;42.670;23.398;2024-01-30T01:46:39;96847.97;;;-1.05;100.00
4415;BME280;2220;42.670;23.398;2024-01-30T01:49:05;96839.63;;;-1.07;100.00
4415;BME280;2220;42.670;23.398;2024-01-30T01:51:33;96844.88;;;-1.08;100.00
4415;BME280;2220;42.670;23.398;2024-01-30T01:54:02;96841.53;;;-1.09;100.00
4415;BME280;2220;42.670;23.398;2024-01-30T01:56:29;96845.41;;;-1.15;100.00
4415;BME280;2220;42.670;23.398;2024-01-30T01:58:55;96845.53;;;-1.16;100.00
4415;BME280;2220;42.670;23.398;2024-01-30T02:01:21;96847.41;;;-1.28;100.00
4415;BME280;2220;42.670;23.398;2024-01-30T02:03:48;96851.56;;;-1.27;100.00
4415;BME280;2220;42.670;23.398;2024-01-30T02:06:14;96853.56;;;-1.30;100.00
4415;BME280;2220;42.670;23.398;2024-01-30T02:08:40;96854.44;;;-1.20;100.00
4415;BME280;2220;42.670;23.398;2024-01-30T02:11:05;96850.13;;;-1.20;100.00
4415;BME280;2220;42.670;23.398;2024-01-30T02:13:31;96857.00;;;-1.10;100.00
4415;BME280;2220;42.670;23.398;2024-01-30T02:15:56;96856.19;;;-1.11;100.00
4415;BME280;2220;42.670;23.398;2024-01-30T02:18:22;96857.13;;;-1.12;100.00
4415;BME280;2220;42.670;23.398;2024-01-30T02:20:48;96857.53;;;-1.17;100.00
4415;BME280;2220;42.670;23.398;2024-01-30T02:23:15;96848.38;;;-1.09;100.00
4415;BME280;2220;42.670;23.398;2024-01-30T02:25:41;96851.09;;;-1.11;100.00
4415;BME280;2220;42.670;23.398;2024-01-30T02:28:13;96855.25;;;-1.10;100.00
4415;BME280;2220;42.670;23.398;2024-01-30T02:30:47;96849.72;;;-1.15;100.00
4415;BME280;2220;42.670;23.398;2024-01-30T02:33:13;96849.97;;;-1.18;100.00
4415;BME280;2220;42.670;23.398;2024-01-30T02:35:38;96848.09;;;-1.16;100.00
4415;BME280;2220;42.670;23.398;2024-01-30T02:38:04;96848.25;;;-1.08;100.00
4415;BME280;2220;42.670;23.398;2024-01-30T02:40:30;96850.66;;;-1.06;100.00
4415;BME280;2220;42.670;23.398;2024-01-30T02:42:57;96852.03;;;-1.12;100.00
4415;BME280;2220;42.670;23.398;2024-01-30T02:45:23;96857.66;;;-1.18;100.00
4415;BME280;2220;42.670;23.398;2024-01-30T02:47:48;96854.16;;;-1.17;100.00
4415;BME280;2220;42.670;23.398;2024-01-30T02:50:13;96859.28;;;-1.07;100.00
4415;BME280;2220;42.670;23.398;2024-01-30T02:52:40;96849.63;;;-1.04;100.00
4415;BME280;2220;42.670;23.398;2024-01-30T02:55:06;96848.13;;;-1.06;100.00
4415;BME280;2220;42.670;23.398;2024-01-30T02:57:31;96847.59;;;-1.00;100.00
4415;BME280;2220;42.670;23.398;2024-01-30T02:59:57;96843.56;;;-1.03;100.00
4415;BME280;2220;42.670;23.398;2024-01-30T03:02:22;96842.75;;;-0.94;100.00
4415;BME280;2220;42.670;23.398;2024-01-30T03:04:48;96844.38;;;-0.93;100.00
4415;BME280;2220;42.670;23.398;2024-01-30T03:07:13;96844.22;;;-1.01;100.00
4415;BME280;2220;42.670;23.398;2024-01-30T03:09:41;96847.88;;;-0.94;100.00
4415;BME280;2220;42.670;23.398;2024-01-30T03:12:07;96841.16;;;-0.95;100.00
4415;BME280;2220;42.670;23.398;2024-01-30T03:14:33;96843.84;;;-0.96;100.00
4415;BME280;2220;42.670;23.398;2024-01-30T03:16:58;96849.19;;;-0.99;100.00
4415;BME280;2220;42.670;23.398;2024-01-30T03:19:23;96851.22;;;-1.03;100.00
4415;BME280;2220;42.670;23.398;2024-01-30T03:21:49;96848.41;;;-1.00;100.00
4415;BME280;2220;42.670;23.398;2024-01-30T03:24:15;96845.41;;;-1.05;100.00
4415;BME280;2220;42.670;23.398;2024-01-30T03:26:40;96833.84;;;-0.99;100.00
4415;BME280;2220;42.670;23.398;2024-01-30T03:29:06;96845.56;;;-0.97;100.00
4415;BME280;2220;42.670;23.398;2024-01-30T03:31:31;96840.06;;;-1.02;100.00
4415;BME280;2220;42.670;23.398;2024-01-30T03:33:57;96829.25;;;-1.05;100.00
4415;BME280;2220;42.670;23.398;2024-01-30T03:36:22;96848.13;;;-0.97;100.00
4415;BME280;2220;42.670;23.398;2024-01-30T03:38:47;96841.09;;;-1.14;100.00
4415;BME280;2220;42.670;23.398;2024-01-30T03:41:13;96840.19;;;-1.03;100.00
4415;BME280;2220;42.670;23.398;2024-01-30T03:43:38;96838.44;;;-1.03;100.00
4415;BME280;2220;42.670;23.398;2024-01-30T03:46:04;96835.47;;;-0.98;100.00
4415;BME280;2220;42.670;23.398;2024-01-30T03:48:29;96828.88;;;-0.91;100.00
4415;BME280;2220;42.670;23.398;2024-01-30T03:50:55;96826.75;;;-0.86;100.00
4415;BME280;2220;42.670;23.398;2024-01-30T03:53:20;96833.91;;;-0.80;100.00
4415;BME280;2220;42.670;23.398;2024-01-30T03:55:46;96829.69;;;-0.81;100.00
4415;BME280;2220;42.670;23.398;2024-01-30T03:58:11;96829.69;;;-0.81;100.00
4415;BME280;2220;42.670;23.398;2024-01-30T04:00:37;96824.06;;;-0.75;100.00
4415;BME280;2220;42.670;23.398;2024-01-30T04:03:03;96835.91;;;-0.74;100.00
4415;BME280;2220;42.670;23.398;2024-01-30T04:05:28;96826.59;;;-0.65;100.00
4415;BME280;2220;42.670;23.398;2024-01-30T04:07:53;96824.75;;;-0.63;100.00
4415;BME280;2220;42.670;23.398;2024-01-30T04:10:19;96824.06;;;-0.75;100.00
4415;BME280;2220;42.670;23.398;2024-01-30T04:12:44;96825.41;;;-0.71;100.00
4415;BME280;2220;42.670;23.398;2024-01-30T04:15:10;96826.63;;;-0.55;100.00
4415;BME280;2220;42.670;23.398;2024-01-30T04:17:35;96832.81;;;-0.58;100.00
4415;BME280;2220;42.670;23.398;2024-01-30T04:20:01;96830.25;;;-0.58;100.00
4415;BME280;2220;42.670;23.398;2024-01-30T04:22:26;96836.72;;;-0.64;100.00
4415;BME280;2220;42.670;23.398;2024-01-30T04:24:52;96835.75;;;-0.72;100.00
4415;BME280;2220;42.670;23.398;2024-01-30T04:27:17;96836.69;;;-1.12;100.00
4415;BME280;2220;42.670;23.398;2024-01-30T04:29:42;96839.31;;;-1.23;100.00
4415;BME280;2220;42.670;23.398;2024-01-30T04:32:09;96842.03;;;-1.15;100.00
4415;BME280;2220;42.670;23.398;2024-01-30T04:34:36;96841.09;;;-1.14;100.00
4415;BME280;2220;42.670;23.398;2024-01-30T04:37:01;96841.91;;;-1.14;100.00
4415;BME280;2220;42.670;23.398;2024-01-30T04:39:27;96842.19;;;-1.17;100.00
4415;BME280;2220;42.670;23.398;2024-01-30T04:41:52;96837.34;;;-1.10;100.00
4415;BME280;2220;42.670;23.398;2024-01-30T04:44:18;96840.28;;;-1.15;100.00
4415;BME280;2220;42.670;23.398;2024-01-30T04:46:43;96832.38;;;-1.11;100.00
4415;BME280;2220;42.670;23.398;2024-01-30T04:49:08;96845.16;;;-1.02;100.00
4415;BME280;2220;42.670;23.398;2024-01-30T04:51:34;96848.25;;;-0.98;100.00
4415;BME280;2220;42.670;23.398;2024-01-30T04:53:59;96845.69;;;-0.98;100.00
4415;BME280;2220;42.670;23.398;2024-01-30T04:56:25;96848.97;;;-0.96;100.00
4415;BME280;2220;42.670;23.398;2024-01-30T04:58:50;96860.38;;;-1.00;100.00
4415;BME280;2220;42.670;23.398;2024-01-30T05:01:16;96858.50;;;-0.98;100.00
4415;BME280;2220;42.670;23.398;2024-01-30T05:03:42;96862.66;;;-0.97;100.00
4415;BME280;2220;42.670;23.398;2024-01-30T05:06:08;96860.53;;;-1.02;100.00
4415;BME280;2220;42.670;23.398;2024-01-30T05:08:33;96865.47;;;-1.10;100.00
4415;BME280;2220;42.670;23.398;2024-01-30T05:11:02;96869.78;;;-1.20;100.00
4415;BME280;2220;42.670;23.398;2024-01-30T05:13:31;96866.78;;;-1.25;100.00
4415;BME280;2220;42.670;23.398;2024-01-30T05:15:57;96868.13;;;-1.21;100.00
4415;BME280;2220;42.670;23.398;2024-01-30T05:18:23;96864.50;;;-1.28;100.00
4415;BME280;2220;42.670;23.398;2024-01-30T05:20:50;96866.16;;;-1.48;100.00
4415;BME280;2220;42.670;23.398;2024-01-30T05:23:15;96864.22;;;-1.65;100.00
4415;BME280;2220;42.670;23.398;2024-01-30T05:25:41;96861.16;;;-1.59;100.00
4415;BME280;2220;42.670;23.398;2024-01-30T05:28:06;96865.81;;;-1.64;100.00
4415;BME280;2220;42.670;23.398;2024-01-30T05:30:31;96866.19;;;-1.69;100.00
4415;BME280;2220;42.670;23.398;2024-01-30T05:32:57;96865.81;;;-1.64;100.00
4415;BME280;2220;42.670;23.398;2024-01-30T05:35:22;96867.19;;;-1.60;100.00
4415;BME280;2220;42.670;23.398;2024-01-30T05:37:48;96868.69;;;-1.58;100.00
4415;BME280;2220;42.670;23.398;2024-01-30T05:40:15;96869.00;;;-1.51;100.00
4415;BME280;2220;42.670;23.398;2024-01-30T05:42:40;96872.34;;;-1.51;100.00
4415;BME280;2220;42.670;23.398;2024-01-30T05:45:06;96873.00;;;-1.58;100.00
4415;BME280;2220;42.670;23.398;2024-01-30T05:47:32;96873.53;;;-1.55;100.00
4415;BME280;2220;42.670;23.398;2024-01-30T05:49:57;96874.59;;;-1.57;100.00
4415;BME280;2220;42.670;23.398;2024-01-30T05:52:22;96877.16;;;-1.57;100.00
4415;BME280;2220;42.670;23.398;2024-01-30T05:54:48;96868.56;;;-1.56;100.00
4415;BME280;2220;42.670;23.398;2024-01-30T05:57:13;96875.53;;;-1.58;100.00
4415;BME280;2220;42.670;23.398;2024-01-30T05:59:38;96870.63;;;-1.71;100.00
4415;BME280;2220;42.670;23.398;2024-01-30T06:02:04;96870.47;;;-1.79;100.00
4415;BME280;2220;42.670;23.398;2024-01-30T06:04:29;96869.22;;;-1.85;100.00
4415;BME280;2220;42.670;23.398;2024-01-30T06:06:55;96868.53;;;-1.87;100.00
4415;BME280;2220;42.670;23.398;2024-01-30T06:09:20;96860.81;;;-1.76;100.00
4415;BME280;2220;42.670;23.398;2024-01-30T06:11:46;96872.19;;;-1.80;100.00
4415;BME280;2220;42.670;23.398;2024-01-30T06:14:11;96868.72;;;-1.79;100.00
4415;BME280;2220;42.670;23.398;2024-01-30T06:16:36;96867.78;;;-1.78;100.00
4415;BME280;2220;42.670;23.398;2024-01-30T06:19:02;96866.97;;;-1.78;100.00
4415;BME280;2220;42.670;23.398;2024-01-30T06:21:27;96868.84;;;-1.80;100.00
4415;BME280;2220;42.670;23.398;2024-01-30T06:23:53;96866.59;;;-1.74;100.00
4415;BME280;2220;42.670;23.398;2024-01-30T06:26:18;96870.72;;;-1.82;100.00
4415;BME280;2220;42.670;23.398;2024-01-30T06:28:44;96868.34;;;-1.74;100.00
4415;BME280;2220;42.670;23.398;2024-01-30T06:31:09;96875.59;;;-1.70;100.00
4415;BME280;2220;42.670;23.398;2024-01-30T06:33:35;96877.00;;;-1.65;100.00
4415;BME280;2220;42.670;23.398;2024-01-30T06:36:00;96868.13;;;-1.61;100.00
4415;BME280;2220;42.670;23.398;2024-01-30T06:38:26;96870.56;;;-1.60;100.00
4415;BME280;2220;42.670;23.398;2024-01-30T06:40:51;96877.84;;;-1.55;100.00
4415;BME280;2220;42.670;23.398;2024-01-30T06:43:16;96879.75;;;-1.48;100.00
4415;BME280;2220;42.670;23.398;2024-01-30T06:45:42;96889.34;;;-1.40;100.00
4415;BME280;2220;42.670;23.398;2024-01-30T06:48:08;96885.06;;;-1.30;100.00
4415;BME280;2220;42.670;23.398;2024-01-30T06:50:33;96891.69;;;-1.27;100.00
4415;BME280;2220;42.670;23.398;2024-01-30T06:52:59;96889.78;;;-1.25;100.00
4415;BME280;2220;42.670;23.398;2024-01-30T06:55:24;96886.88;;;-1.11;100.00
4415;BME280;2220;42.670;23.398;2024-01-30T06:57:50;96890.53;;;-1.04;100.00
4415;BME280;2220;42.670;23.398;2024-01-30T07:00:15;96889.09;;;-0.87;100.00
4415;BME280;2220;42.670;23.398;2024-01-30T07:02:41;96888.81;;;-0.84;100.00
4415;BME280;2220;42.670;23.398;2024-01-30T07:05:07;96896.13;;;-0.79;100.00
4415;BME280;2220;42.670;23.398;2024-01-30T07:07:32;96896.34;;;-1.02;100.00
4415;BME280;2220;42.670;23.398;2024-01-30T07:09:58;96894.59;;;-0.92;100.00
4415;BME280;2220;42.670;23.398;2024-01-30T07:12:24;96891.09;;;-0.91;100.00
4415;BME280;2220;42.670;23.398;2024-01-30T07:14:51;96897.31;;;-0.83;100.00
4415;BME280;2220;42.670;23.398;2024-01-30T07:17:17;96897.16;;;-0.82;100.00
4415;BME280;2220;42.670;23.398;2024-01-30T07:19:42;96896.88;;;-0.89;100.00
4415;BME280;2220;42.670;23.398;2024-01-30T07:22:08;96895.25;;;-0.99;100.00
4415;BME280;2220;42.670;23.398;2024-01-30T07:24:34;96900.94;;;-0.86;100.00
4415;BME280;2220;42.670;23.398;2024-01-30T07:26:59;96900.81;;;-0.85;100.00
4415;BME280;2220;42.670;23.398;2024-01-30T07:29:25;96893.81;;;-0.73;100.00
4415;BME280;2220;42.670;23.398;2024-01-30T07:31:50;96889.69;;;-0.64;100.00
4415;BME280;2220;42.670;23.398;2024-01-30T07:34:16;96886.56;;;-0.58;100.00
4415;BME280;2220;42.670;23.398;2024-01-30T07:36:41;96888.31;;;-0.59;100.00
4415;BME280;2220;42.670;23.398;2024-01-30T07:39:07;96888.06;;;-0.55;100.00
4415;BME280;2220;42.670;23.398;2024-01-30T07:41:32;96892.38;;;-0.46;100.00
4415;BME280;2220;42.670;23.398;2024-01-30T07:43:58;96896.25;;;-0.42;100.00
4415;BME280;2220;42.670;23.398;2024-01-30T07:46:23;96882.00;;;-0.45;100.00
4415;BME280;2220;42.670;23.398;2024-01-30T07:48:49;96890.47;;;-0.54;100.00
4415;BME280;2220;42.670;23.398;2024-01-30T07:51:14;96890.34;;;-0.43;100.00
4415;BME280;2220;42.670;23.398;2024-01-30T07:53:41;96896.94;;;-0.40;100.00
4415;BME280;2220;42.670;23.398;2024-01-30T07:56:07;96893.84;;;-0.24;100.00
4415;BME280;2220;42.670;23.398;2024-01-30T07:58:32;96901.13;;;-0.20;100.00
4415;BME280;2220;42.670;23.398;2024-01-30T08:00:58;96893.16;;;-0.17;100.00
4415;BME280;2220;42.670;23.398;2024-01-30T08:03:24;96892.09;;;-0.14;100.00
4415;BME280;2220;42.670;23.398;2024-01-30T08:05:49;96897.75;;;-0.11;100.00
4415;BME280;2220;42.670;23.398;2024-01-30T08:08:15;96892.72;;;0.07;100.00
4415;BME280;2220;42.670;23.398;2024-01-30T08:10:40;96890.06;;;0.09;100.00
4415;BME280;2220;42.670;23.398;2024-01-30T08:13:06;96878.69;;;0.21;100.00
4415;BME280;2220;42.670;23.398;2024-01-30T08:15:31;96885.97;;;0.25;100.00
4415;BME280;2220;42.670;23.398;2024-01-30T08:17:57;96883.66;;;0.22;100.00
4415;BME280;2220;42.670;23.398;2024-01-30T08:20:24;96889.00;;;0.48;100.00
4415;BME280;2220;42.670;23.398;2024-01-30T08:22:50;96886.19;;;0.42;100.00
4415;BME280;2220;42.670;23.398;2024-01-30T08:25:15;96880.88;;;0.53;100.00
4415;BME280;2220;42.670;23.398;2024-01-30T08:27:41;96893.06;;;0.78;100.00
4415;BME280;2220;42.670;23.398;2024-01-30T08:30:07;96887.97;;;0.96;100.00
4415;BME280;2220;42.670;23.398;2024-01-30T08:32:32;96887.50;;;1.28;100.00
4415;BME280;2220;42.670;23.398;2024-01-30T08:34:59;96894.44;;;1.46;100.00
4415;BME280;2220;42.670;23.398;2024-01-30T08:37:24;96900.16;;;1.57;100.00
4415;BME280;2220;42.670;23.398;2024-01-30T08:39:50;96896.63;;;1.76;100.00
4415;BME280;2220;42.670;23.398;2024-01-30T08:42:15;96895.19;;;1.56;100.00
4415;BME280;2220;42.670;23.398;2024-01-30T08:44:43;96896.88;;;1.47;100.00
4415;BME280;2220;42.670;23.398;2024-01-30T08:47:09;96905.16;;;1.77;100.00
4415;BME280;2220;42.670;23.398;2024-01-30T08:49:34;96902.78;;;1.83;100.00
4415;BME280;2220;42.670;23.398;2024-01-30T08:52:00;96907.94;;;1.83;100.00
4415;BME280;2220;42.670;23.398;2024-01-30T08:54:25;96903.13;;;2.06;100.00
4415;BME280;2220;42.670;23.398;2024-01-30T08:56:50;96904.69;;;2.17;100.00
4415;BME280;2220;42.670;23.398;2024-01-30T08:59:18;96909.66;;;2.18;100.00
4415;BME280;2220;42.670;23.398;2024-01-30T09:01:44;96906.28;;;2.18;100.00
4415;BME280;2220;42.670;23.398;2024-01-30T09:04:09;96916.94;;;2.05;100.00
4415;BME280;2220;42.670;23.398;2024-01-30T09:06:35;96903.22;;;1.96;100.00
4415;BME280;2220;42.670;23.398;2024-01-30T09:09:00;96911.84;;;1.87;100.00
4415;BME280;2220;42.670;23.398;2024-01-30T09:11:26;96909.41;;;1.68;100.00
4415;BME280;2220;42.670;23.398;2024-01-30T09:13:51;96907.94;;;1.48;100.00
4415;BME280;2220;42.670;23.398;2024-01-30T09:16:17;96903.53;;;1.58;100.00
4415;BME280;2220;42.670;23.398;2024-01-30T09:18:42;96899.31;;;1.92;100.00
4415;BME280;2220;42.670;23.398;2024-01-30T09:21:07;96900.22;;;2.01;100.00
4415;BME280;2220;42.670;23.398;2024-01-30T09:23:33;96889.91;;;2.19;100.00
4415;BME280;2220;42.670;23.398;2024-01-30T09:25:58;96893.50;;;2.26;100.00
4415;BME280;2220;42.670;23.398;2024-01-30T09:28:24;96886.88;;;2.23;100.00
4415;BME280;2220;42.670;23.398;2024-01-30T09:30:49;96891.44;;;1.86;100.00
4415;BME280;2220;42.670;23.398;2024-01-30T09:33:15;96886.13;;;1.34;100.00
4415;BME280;2220;42.670;23.398;2024-01-30T09:35:40;96894.50;;;1.36;100.00
4415;BME280;2220;42.670;23.398;2024-01-30T09:38:06;96896.38;;;1.61;100.00
4415;BME280;2220;42.670;23.398;2024-01-30T09:40:31;96895.31;;;1.72;100.00
4415;BME280;2220;42.670;23.398;2024-01-30T09:42:58;96880.47;;;1.84;100.00
4415;BME280;2220;42.670;23.398;2024-01-30T09:45:26;96891.00;;;1.73;100.00
4415;BME280;2220;42.670;23.398;2024-01-30T09:47:52;96881.88;;;1.60;100.00
4415;BME280;2220;42.670;23.398;2024-01-30T09:50:19;96881.44;;;1.47;100.00
4415;BME280;2220;42.670;23.398;2024-01-30T09:52:45;96881.88;;;1.43;100.00
4415;BME280;2220;42.670;23.398;2024-01-30T09:55:11;96883.97;;;1.11;100.00
4415;BME280;2220;42.670;23.398;2024-01-30T09:57:37;96880.50;;;1.03;100.00
4415;BME280;2220;42.670;23.398;2024-01-30T10:00:03;96879.22;;;1.17;100.00
4415;BME280;2220;42.670;23.398;2024-01-30T10:02:32;96877.53;;;1.25;100.00
4415;BME280;2220;42.670;23.398;2024-01-30T10:04:59;96866.56;;;1.33;100.00
4415;BME280;2220;42.670;23.398;2024-01-30T10:07:25;96870.00;;;1.24;100.00
4415;BME280;2220;42.670;23.398;2024-01-30T10:09:50;96871.25;;;1.37;100.00
4415;BME280;2220;42.670;23.398;2024-01-30T10:12:16;96863.09;;;1.24;100.00
4415;BME280;2220;42.670;23.398;2024-01-30T10:14:42;96854.13;;;1.10;100.00
4415;BME280;2220;42.670;23.398;2024-01-30T10:17:12;96855.63;;;0.86;100.00
4415;BME280;2220;42.670;23.398;2024-01-30T10:19:39;96859.94;;;0.85;100.00
4415;BME280;2220;42.670;23.398;2024-01-30T10:22:05;96852.00;;;1.06;100.00
4415;BME280;2220;42.670;23.398;2024-01-30T10:24:30;96860.03;;;1.21;100.00
4415;BME280;2220;42.670;23.398;2024-01-30T10:26:56;96869.75;;;1.17;100.00
4415;BME280;2220;42.670;23.398;2024-01-30T10:29:22;96849.06;;;1.19;100.00
4415;BME280;2220;42.670;23.398;2024-01-30T10:32:01;96865.16;;;1.21;100.00
4415;BME280;2220;42.670;23.398;2024-01-30T10:34:27;96856.84;;;1.27;100.00
4415;BME280;2220;42.670;23.398;2024-01-30T10:37:04;96867.66;;;1.48;100.00
4415;BME280;2220;42.670;23.398;2024-01-30T10:39:38;96852.53;;;1.27;100.00
4415;BME280;2220;42.670;23.398;2024-01-30T10:42:04;96855.81;;;1.20;100.00
4415;BME280;2220;42.670;23.398;2024-01-30T10:44:36;96863.72;;;0.91;100.00
4415;BME280;2220;42.670;23.398;2024-01-30T10:47:06;96866.16;;;1.10;100.00
4415;BME280;2220;42.670;23.398;2024-01-30T10:49:33;96860.81;;;1.57;100.00
4415;BME280;2220;42.670;23.398;2024-01-30T10:51:59;96856.13;;;1.34;100.00
4415;BME280;2220;42.670;23.398;2024-01-30T10:54:26;96851.78;;;1.35;100.00
4415;BME280;2220;42.670;23.398;2024-01-30T10:56:53;96846.53;;;1.36;100.00
4415;BME280;2220;42.670;23.398;2024-01-30T10:59:19;96850.06;;;1.53;100.00
4415;BME280;2220;42.670;23.398;2024-01-30T11:01:45;96845.75;;;1.80;100.00
4415;BME280;2220;42.670;23.398;2024-01-30T11:04:11;96835.72;;;1.68;100.00
4415;BME280;2220;42.670;23.398;2024-01-30T11:06:43;96836.53;;;1.51;100.00
4415;BME280;2220;42.670;23.398;2024-01-30T11:09:11;96830.44;;;1.70;100.00
4415;BME280;2220;42.670;23.398;2024-01-30T11:11:57;96829.13;;;1.66;100.00
4415;BME280;2220;42.670;23.398;2024-01-30T11:14:28;96830.09;;;1.47;100.00
4415;BME280;2220;42.670;23.398;2024-01-30T11:16:58;96817.75;;;0.97;100.00
4415;BME280;2220;42.670;23.398;2024-01-30T11:19:25;96827.94;;;1.07;100.00
4415;BME280;2220;42.670;23.398;2024-01-30T11:21:54;96829.56;;;1.26;100.00
4415;BME280;2220;42.670;23.398;2024-01-30T11:24:20;96831.56;;;1.14;100.00
4415;BME280;2220;42.670;23.398;2024-01-30T11:26:48;96830.69;;;1.23;100.00
4415;BME280;2220;42.670;23.398;2024-01-30T11:29:17;96829.88;;;1.23;100.00
4415;BME280;2220;42.670;23.398;2024-01-30T11:31:55;96820.19;;;1.34;100.00
4415;BME280;2220;42.670;23.398;2024-01-30T11:34:21;96819.97;;;1.46;100.00
4415;BME280;2220;42.670;23.398;2024-01-30T11:36:56;96828.09;;;1.59;100.00
4415;BME280;2220;42.670;23.398;2024-01-30T11:39:25;96827.81;;;1.62;100.00
4415;BME280;2220;42.670;23.398;2024-01-30T11:41:52;96823.97;;;1.66;100.00
4415;BME280;2220;42.670;23.398;2024-01-30T11:44:22;96822.91;;;1.94;100.00
4415;BME280;2220;42.670;23.398;2024-01-30T11:46:51;96819.38;;;1.95;100.00
4415;BME280;2220;42.670;23.398;2024-01-30T11:49:17;96827.44;;;2.01;100.00
4415;BME280;2220;42.670;23.398;2024-01-30T11:51:43;96817.97;;;2.01;100.00
4415;BME280;2220;42.670;23.398;2024-01-30T11:54:10;96820.28;;;1.86;100.00
4415;BME280;2220;42.670;23.398;2024-01-30T11:56:37;96818.84;;;1.92;100.00
4415;BME280;2220;42.670;23.398;2024-01-30T11:59:03;96815.94;;;1.87;100.00
4415;BME280;2220;42.670;23.398;2024-01-30T12:01:29;96807.75;;;1.65;100.00
4415;BME280;2220;42.670;23.398;2024-01-30T12:03:55;96792.75;;;1.53;100.00
4415;BME280;2220;42.670;23.398;2024-01-30T12:06:23;96796.94;;;1.18;100.00
4415;BME280;2220;42.670;23.398;2024-01-30T12:09:02;96786.34;;;1.03;100.00
4415;BME280;2220;42.670;23.398;2024-01-30T12:11:31;96784.03;;;1.10;100.00
4415;BME280;2220;42.670;23.398;2024-01-30T12:13:57;96782.19;;;1.20;100.00
4415;BME280;2220;42.670;23.398;2024-01-30T12:16:23;96781.56;;;1.44;100.00
4415;BME280;2220;42.670;23.398;2024-01-30T12:18:48;96777.63;;;1.76;100.00
4415;BME280;2220;42.670;23.398;2024-01-30T12:21:17;96777.56;;;1.85;100.00
4415;BME280;2220;42.670;23.398;2024-01-30T12:23:43;96772.59;;;1.92;100.00
4415;BME280;2220;42.670;23.398;2024-01-30T12:26:09;96768.94;;;1.94;100.00
4415;BME280;2220;42.670;23.398;2024-01-30T12:28:35;96777.91;;;1.90;100.00
4415;BME280;2220;42.670;23.398;2024-01-30T12:31:02;96771.25;;;2.06;100.00
4415;BME280;2220;42.670;23.398;2024-01-30T12:33:28;96757.81;;;1.86;100.00
4415;BME280;2220;42.670;23.398;2024-01-30T12:35:54;96759.47;;;1.95;100.00
4415;BME280;2220;42.670;23.398;2024-01-30T12:38:19;96757.06;;;1.93;100.00
4415;BME280;2220;42.670;23.398;2024-01-30T12:40:45;96758.06;;;2.01;100.00
4415;BME280;2220;42.670;23.398;2024-01-30T12:43:10;96751.06;;;2.19;100.00
4415;BME280;2220;42.670;23.398;2024-01-30T12:45:36;96759.88;;;2.16;100.00
4415;BME280;2220;42.670;23.398;2024-01-30T12:48:02;96749.56;;;2.08;100.00
4415;BME280;2220;42.670;23.398;2024-01-30T12:50:27;96748.91;;;2.06;100.00
4415;BME280;2220;42.670;23.398;2024-01-30T12:52:53;96745.84;;;2.03;100.00
4415;BME280;2220;42.670;23.398;2024-01-30T12:55:18;96743.84;;;1.88;100.00
4415;BME280;2220;42.670;23.398;2024-01-30T12:57:44;96746.88;;;2.18;100.00
4415;BME280;2220;42.670;23.398;2024-01-30T13:00:09;96733.97;;;2.44;100.00
4415;BME280;2220;42.670;23.398;2024-01-30T13:02:35;96745.69;;;2.46;100.00